Great Eastern — V7HF4 — position and weather

sailwx.info

Track history (hours):
 
Tides and Currents Weather Stations Pressure Air Temp Water Temp Dewpoint Dewpoint Depression Visibility Wind Speed Wind Dir Waves Ship Positions

Great Eastern

Last reported at 2018-Apr-19 01:23 UTC. Time now 2018-Apr-19 11:12 UTC.
Position N 42°52' W 070°22'.

Length 181 m; draft 7.4 m.

Type: Ship. MMSI: 538002221.

Date/timePositionNaut miles runAvg speedWind from/ knotsBaromVisibWave heightAir tempDewpointWater temp
2018-Apr-19 01:23N 42°52' W 070°22'514.3
2018-Apr-19 01:00N 42°47' W 070°24'714.3
2018-Apr-19 00:30N 42°40' W 070°27'713.4
2018-Apr-19 00:00N 42°34' W 070°31'714.4
2018-Apr-18 23:30N 42°30' W 070°39'714.5
2018-Apr-18 23:00N 42°26' W 070°46'713.8
2018-Apr-18 22:30N 42°22' W 070°54'611.3
2018-Apr-18 22:00N 42°21' W 071°02'2 4.1
2018-Apr-18 21:31N 42°23' W 071°01'1 1.6
2018-Apr-18 21:00N 42°24' W 071°01'0 0.0
2018-Apr-18 20:30N 42°24' W 071°01'0 0.0
2018-Apr-18 20:00N 42°24' W 071°01'0 0.0
2018-Apr-18 19:30N 42°24' W 071°01'0 0.0
2018-Apr-18 18:57N 42°24' W 071°01'0 0.0
2018-Apr-18 18:30N 42°24' W 071°01'0 0.0
2018-Apr-18 17:55N 42°24' W 071°01'0 0.0
2018-Apr-18 17:30N 42°24' W 071°01'0 0.0
2018-Apr-18 16:58N 42°24' W 071°01'0 0.0
2018-Apr-18 16:24N 42°24' W 071°01'0 0.0
2018-Apr-18 16:00N 42°24' W 071°01'0 0.0
2018-Apr-18 15:30N 42°24' W 071°01'0 0.0
2018-Apr-18 14:58N 42°24' W 071°01'0 0.0
2018-Apr-18 14:30N 42°24' W 071°01'0 0.0
2018-Apr-18 14:00N 42°24' W 071°01'0 0.0
2018-Apr-18 13:30N 42°24' W 071°01'0 0.0
2018-Apr-18 13:00N 42°24' W 071°01'0 0.0
2018-Apr-18 12:28N 42°24' W 071°01'0 0.0
2018-Apr-18 11:54N 42°24' W 071°01'0 0.0
2018-Apr-18 11:30N 42°24' W 071°01'0 0.0
2018-Apr-18 11:00N 42°24' W 071°01'0 0.0
2018-Apr-18 10:30N 42°24' W 071°01'0 0.0
2018-Apr-18 09:58N 42°24' W 071°01'0 0.0
2018-Apr-18 09:30N 42°24' W 071°01'0 0.0
2018-Apr-18 08:58N 42°24' W 071°01'0 0.0
2018-Apr-18 08:30N 42°24' W 071°01'0 0.0
2018-Apr-18 08:00N 42°24' W 071°01'0 0.0
2018-Apr-18 07:24N 42°24' W 071°01'0 0.0
2018-Apr-18 06:58N 42°24' W 071°01'0 0.0
2018-Apr-18 06:30N 42°24' W 071°01'0 0.0
2018-Apr-18 06:01N 42°24' W 071°01'0 0.0
2018-Apr-18 05:30N 42°24' W 071°01'0 0.0
2018-Apr-18 05:00N 42°24' W 071°01'0 0.0
2018-Apr-18 04:30N 42°24' W 071°01'0 0.0
2018-Apr-18 04:00N 42°24' W 071°01'0 0.0
2018-Apr-18 03:30N 42°24' W 071°01'0 0.0
2018-Apr-18 02:49N 42°24' W 071°01'0 0.0
2018-Apr-18 02:30N 42°24' W 071°01'0 0.0
2018-Apr-18 02:00N 42°24' W 071°01'0 0.0
2018-Apr-18 01:30N 42°24' W 071°01'0 0.0
2018-Apr-18 01:00N 42°24' W 071°01'0 0.0
2018-Apr-18 00:28N 42°24' W 071°01'0 0.0
2018-Apr-18 00:00N 42°24' W 071°01'0 0.0
2018-Apr-17 23:30N 42°24' W 071°01'0 0.0
2018-Apr-17 23:00N 42°24' W 071°01'0 0.0
2018-Apr-17 22:24N 42°24' W 071°01'0 0.0
2018-Apr-17 21:58N 42°24' W 071°01'0 0.0
2018-Apr-17 21:27N 42°24' W 071°01'0 0.0
2018-Apr-17 21:00N 42°24' W 071°01'0 0.0
2018-Apr-17 20:30N 42°24' W 071°01'0 0.0
2018-Apr-17 20:00N 42°24' W 071°01'0 0.0
2018-Apr-17 19:30N 42°24' W 071°01'0 0.0
2018-Apr-17 19:01N 42°24' W 071°01'0 0.0
2018-Apr-17 18:30N 42°24' W 071°01'0 0.0
2018-Apr-17 18:00N 42°24' W 071°01'1 2.0
2018-Apr-17 17:30N 42°23' W 071°02'1 2.3
2018-Apr-17 17:00N 42°22' W 071°03'3 5.3
2018-Apr-17 16:29N 42°20' W 071°00'510.4
2018-Apr-17 15:59N 42°23' W 070°54'4 9.3
2018-Apr-17 15:30N 42°25' W 070°49'5 9.6
2018-Apr-17 15:00N 42°28' W 070°44'510.0
2018-Apr-17 14:31N 42°31' W 070°38'510.4
2018-Apr-17 14:00N 42°34' W 070°32'5 9.9
2018-Apr-17 13:30N 42°36' W 070°26'4 9.2
2018-Apr-17 13:00N 42°39' W 070°21'1 2.3
2018-Apr-17 12:31N 42°38' W 070°23'3 6.4
2018-Apr-17 11:59N 42°40' W 070°19'1 1.9
2018-Apr-17 11:30N 42°41' W 070°18'611.2
2018-Apr-17 11:00N 42°44' W 070°12'713.4
2018-Apr-17 10:29N 42°47' W 070°04'  
2018-Apr-14 12:44N 43°56' W 068°47'312.8
2018-Apr-14 12:30N 43°56' W 068°51'610.7
2018-Apr-14 11:58N 43°59' W 068°58'611.9
2018-Apr-14 11:30N 44°04' W 069°01'713.5
2018-Apr-14 11:00N 44°11' W 069°01'  
2018-Apr-12 01:06N 44°14' W 068°60'213.3
2018-Apr-12 00:58N 44°12' W 069°00'613.6
2018-Apr-12 00:30N 44°06' W 069°01'713.4
2018-Apr-11 23:59N 43°59' W 069°00'613.0
2018-Apr-11 23:30N 43°56' W 069°08'8911.3
2018-Apr-11 15:36N 42°44' W 070°20'110.7
2018-Apr-11 15:30N 42°43' W 070°20'510.9
2018-Apr-11 15:00N 42°38' W 070°24'510.7
2018-Apr-11 14:30N 42°35' W 070°30'611.8
2018-Apr-11 14:00N 42°32' W 070°36'510.9
2018-Apr-11 13:30N 42°29' W 070°43'510.7
2018-Apr-11 13:00N 42°26' W 070°49'510.0
2018-Apr-11 12:30N 42°22' W 070°54'5 9.3
2018-Apr-11 12:00N 42°20' W 070°59'4 7.7
2018-Apr-11 11:30N 42°23' W 071°03'1 2.4
2018-Apr-11 11:00N 42°23' W 071°01'0 0.4
2018-Apr-11 10:30N 42°24' W 071°01'0 0.0
2018-Apr-11 09:59N 42°24' W 071°01'0 0.0
2018-Apr-11 09:29N 42°24' W 071°01'0 0.0
2018-Apr-11 08:59N 42°24' W 071°01'0 0.0
2018-Apr-11 08:29N 42°24' W 071°01'0 0.0
2018-Apr-11 07:59N 42°24' W 071°01'0 0.0
2018-Apr-11 07:29N 42°24' W 071°01'0 0.0
2018-Apr-11 06:59N 42°24' W 071°01'0 0.0
2018-Apr-11 06:29N 42°24' W 071°01'0 0.0
2018-Apr-11 05:59N 42°24' W 071°01'0 0.0
2018-Apr-11 05:29N 42°24' W 071°01'0 0.0
2018-Apr-11 04:59N 42°24' W 071°01'0 0.0
2018-Apr-11 04:29N 42°24' W 071°01'0 0.0
2018-Apr-11 03:59N 42°24' W 071°01'0 0.0
2018-Apr-11 03:29N 42°24' W 071°01'0 0.0
2018-Apr-11 02:59N 42°24' W 071°01'0 0.0
2018-Apr-11 02:29N 42°24' W 071°01'0 0.0
2018-Apr-11 01:59N 42°24' W 071°01'0 0.0
2018-Apr-11 01:29N 42°24' W 071°01'0 0.0
2018-Apr-11 00:59N 42°24' W 071°01'0 0.0
2018-Apr-11 00:29N 42°24' W 071°01'0 0.0
2018-Apr-10 23:59N 42°24' W 071°01'0 0.0
2018-Apr-10 23:29N 42°24' W 071°01'0 0.0
2018-Apr-10 22:59N 42°24' W 071°01'0 0.0
2018-Apr-10 22:29N 42°24' W 071°01'0 0.0
2018-Apr-10 21:59N 42°24' W 071°01'0 0.0
2018-Apr-10 21:29N 42°24' W 071°01'0 0.0
2018-Apr-10 20:59N 42°24' W 071°01'0 0.0
2018-Apr-10 20:29N 42°24' W 071°01'0 0.0
2018-Apr-10 19:59N 42°24' W 071°01'0 0.0
2018-Apr-10 19:29N 42°24' W 071°01'0 0.0
2018-Apr-10 18:59N 42°24' W 071°01'0 0.0
2018-Apr-10 18:29N 42°24' W 071°01'0 0.0
2018-Apr-10 17:59N 42°24' W 071°01'0 0.0
2018-Apr-10 17:29N 42°24' W 071°01'0 0.0
2018-Apr-10 16:59N 42°24' W 071°01'0 0.0
2018-Apr-10 16:29N 42°24' W 071°01'0 0.0
2018-Apr-10 15:59N 42°24' W 071°01'0 0.0
2018-Apr-10 15:29N 42°24' W 071°01'0 0.0
2018-Apr-10 14:59N 42°24' W 071°01'0 0.0
2018-Apr-10 14:29N 42°24' W 071°01'0 0.0
2018-Apr-10 13:59N 42°24' W 071°01'0 0.0
2018-Apr-10 13:29N 42°24' W 071°01'0 0.0
2018-Apr-10 12:59N 42°24' W 071°01'0 0.0
2018-Apr-10 12:29N 42°24' W 071°01'0 0.0
2018-Apr-10 11:59N 42°24' W 071°01'1 1.1
2018-Apr-10 11:30N 42°23' W 071°01'1 2.6
2018-Apr-10 11:00N 42°22' W 071°03'4 7.6
2018-Apr-10 10:30N 42°20' W 070°59'611.9
2018-Apr-10 10:00N 42°23' W 070°52'2 3.8
2018-Apr-10 09:28N 42°25' W 070°50'0 0.1
2018-Apr-10 08:59N 42°25' W 070°50'0 0.5
2018-Apr-10 08:30N 42°25' W 070°50'2 3.9
2018-Apr-10 08:00N 42°26' W 070°47'4 7.9
2018-Apr-10 07:30N 42°28' W 070°43'4 8.8
2018-Apr-10 07:00N 42°31' W 070°38'612.9
2018-Apr-10 06:30N 42°34' W 070°31'612.9
2018-Apr-10 06:00N 42°38' W 070°24'612.8
2018-Apr-10 05:30N 42°41' W 070°16'612.9
2018-Apr-10 05:00N 42°45' W 070°09'  
Track history (hours):
 
Tides and Currents Weather Stations Pressure Air Temp Water Temp Dewpoint Dewpoint Depression Visibility Wind Speed Wind Dir Waves Ship Positions

Great Eastern

Last reported at 2018-Apr-19 01:23 UTC. Time now 2018-Apr-19 11:12 UTC.
Position N 42°52' W 070°22'.

Length 181 m; draft 7.4 m.

Type: Ship. MMSI: 538002221.

Date/timePositionNaut miles runAvg speedWind from/ knotsBaromVisibWave heightAir tempDewpointWater temp
2018-Apr-19 01:23N 42°52' W 070°22'514.3
2018-Apr-19 01:00N 42°47' W 070°24'714.3
2018-Apr-19 00:30N 42°40' W 070°27'713.4
2018-Apr-19 00:00N 42°34' W 070°31'714.4
2018-Apr-18 23:30N 42°30' W 070°39'714.5
2018-Apr-18 23:00N 42°26' W 070°46'713.8
2018-Apr-18 22:30N 42°22' W 070°54'611.3
2018-Apr-18 22:00N 42°21' W 071°02'2 4.1
2018-Apr-18 21:31N 42°23' W 071°01'1 1.6
2018-Apr-18 21:00N 42°24' W 071°01'0 0.0
2018-Apr-18 20:30N 42°24' W 071°01'0 0.0
2018-Apr-18 20:00N 42°24' W 071°01'0 0.0
2018-Apr-18 19:30N 42°24' W 071°01'0 0.0
2018-Apr-18 18:57N 42°24' W 071°01'0 0.0
2018-Apr-18 18:30N 42°24' W 071°01'0 0.0
2018-Apr-18 17:55N 42°24' W 071°01'0 0.0
2018-Apr-18 17:30N 42°24' W 071°01'0 0.0
2018-Apr-18 16:58N 42°24' W 071°01'0 0.0
2018-Apr-18 16:24N 42°24' W 071°01'0 0.0
2018-Apr-18 16:00N 42°24' W 071°01'0 0.0
2018-Apr-18 15:30N 42°24' W 071°01'0 0.0
2018-Apr-18 14:58N 42°24' W 071°01'0 0.0
2018-Apr-18 14:30N 42°24' W 071°01'0 0.0
2018-Apr-18 14:00N 42°24' W 071°01'0 0.0
2018-Apr-18 13:30N 42°24' W 071°01'0 0.0
2018-Apr-18 13:00N 42°24' W 071°01'0 0.0
2018-Apr-18 12:28N 42°24' W 071°01'0 0.0
2018-Apr-18 11:54N 42°24' W 071°01'0 0.0
2018-Apr-18 11:30N 42°24' W 071°01'0 0.0
2018-Apr-18 11:00N 42°24' W 071°01'0 0.0
2018-Apr-18 10:30N 42°24' W 071°01'0 0.0
2018-Apr-18 09:58N 42°24' W 071°01'0 0.0
2018-Apr-18 09:30N 42°24' W 071°01'0 0.0
2018-Apr-18 08:58N 42°24' W 071°01'0 0.0
2018-Apr-18 08:30N 42°24' W 071°01'0 0.0
2018-Apr-18 08:00N 42°24' W 071°01'0 0.0
2018-Apr-18 07:24N 42°24' W 071°01'0 0.0
2018-Apr-18 06:58N 42°24' W 071°01'0 0.0
2018-Apr-18 06:30N 42°24' W 071°01'0 0.0
2018-Apr-18 06:01N 42°24' W 071°01'0 0.0
2018-Apr-18 05:30N 42°24' W 071°01'0 0.0
2018-Apr-18 05:00N 42°24' W 071°01'0 0.0
2018-Apr-18 04:30N 42°24' W 071°01'0 0.0
2018-Apr-18 04:00N 42°24' W 071°01'0 0.0
2018-Apr-18 03:30N 42°24' W 071°01'0 0.0
2018-Apr-18 02:49N 42°24' W 071°01'0 0.0
2018-Apr-18 02:30N 42°24' W 071°01'0 0.0
2018-Apr-18 02:00N 42°24' W 071°01'0 0.0
2018-Apr-18 01:30N 42°24' W 071°01'0 0.0
2018-Apr-18 01:00N 42°24' W 071°01'0 0.0
2018-Apr-18 00:28N 42°24' W 071°01'0 0.0
2018-Apr-18 00:00N 42°24' W 071°01'0 0.0
2018-Apr-17 23:30N 42°24' W 071°01'0 0.0
2018-Apr-17 23:00N 42°24' W 071°01'0 0.0
2018-Apr-17 22:24N 42°24' W 071°01'0 0.0
2018-Apr-17 21:58N 42°24' W 071°01'0 0.0
2018-Apr-17 21:27N 42°24' W 071°01'0 0.0
2018-Apr-17 21:00N 42°24' W 071°01'0 0.0
2018-Apr-17 20:30N 42°24' W 071°01'0 0.0
2018-Apr-17 20:00N 42°24' W 071°01'0 0.0
2018-Apr-17 19:30N 42°24' W 071°01'0 0.0
2018-Apr-17 19:01N 42°24' W 071°01'0 0.0
2018-Apr-17 18:30N 42°24' W 071°01'0 0.0
2018-Apr-17 18:00N 42°24' W 071°01'1 2.0
2018-Apr-17 17:30N 42°23' W 071°02'1 2.3
2018-Apr-17 17:00N 42°22' W 071°03'3 5.3
2018-Apr-17 16:29N 42°20' W 071°00'510.4
2018-Apr-17 15:59N 42°23' W 070°54'4 9.3
2018-Apr-17 15:30N 42°25' W 070°49'5 9.6
2018-Apr-17 15:00N 42°28' W 070°44'510.0
2018-Apr-17 14:31N 42°31' W 070°38'510.4
2018-Apr-17 14:00N 42°34' W 070°32'5 9.9
2018-Apr-17 13:30N 42°36' W 070°26'4 9.2
2018-Apr-17 13:00N 42°39' W 070°21'1 2.3
2018-Apr-17 12:31N 42°38' W 070°23'3 6.4
2018-Apr-17 11:59N 42°40' W 070°19'1 1.9
2018-Apr-17 11:30N 42°41' W 070°18'611.2
2018-Apr-17 11:00N 42°44' W 070°12'713.4
2018-Apr-17 10:29N 42°47' W 070°04'  
2018-Apr-14 12:44N 43°56' W 068°47'312.8
2018-Apr-14 12:30N 43°56' W 068°51'610.7
2018-Apr-14 11:58N 43°59' W 068°58'611.9
2018-Apr-14 11:30N 44°04' W 069°01'713.5
2018-Apr-14 11:00N 44°11' W 069°01'  
2018-Apr-12 01:06N 44°14' W 068°60'213.3
2018-Apr-12 00:58N 44°12' W 069°00'613.6
2018-Apr-12 00:30N 44°06' W 069°01'713.4
2018-Apr-11 23:59N 43°59' W 069°00'613.0
2018-Apr-11 23:30N 43°56' W 069°08'8911.3
2018-Apr-11 15:36N 42°44' W 070°20'110.7
2018-Apr-11 15:30N 42°43' W 070°20'510.9
2018-Apr-11 15:00N 42°38' W 070°24'510.7
2018-Apr-11 14:30N 42°35' W 070°30'611.8
2018-Apr-11 14:00N 42°32' W 070°36'510.9
2018-Apr-11 13:30N 42°29' W 070°43'510.7
2018-Apr-11 13:00N 42°26' W 070°49'510.0
2018-Apr-11 12:30N 42°22' W 070°54'5 9.3
2018-Apr-11 12:00N 42°20' W 070°59'4 7.7
2018-Apr-11 11:30N 42°23' W 071°03'1 2.4
2018-Apr-11 11:00N 42°23' W 071°01'0 0.4
2018-Apr-11 10:30N 42°24' W 071°01'0 0.0
2018-Apr-11 09:59N 42°24' W 071°01'0 0.0
2018-Apr-11 09:29N 42°24' W 071°01'0 0.0
2018-Apr-11 08:59N 42°24' W 071°01'0 0.0
2018-Apr-11 08:29N 42°24' W 071°01'0 0.0
2018-Apr-11 07:59N 42°24' W 071°01'0 0.0
2018-Apr-11 07:29N 42°24' W 071°01'0 0.0
2018-Apr-11 06:59N 42°24' W 071°01'0 0.0
2018-Apr-11 06:29N 42°24' W 071°01'0 0.0
2018-Apr-11 05:59N 42°24' W 071°01'0 0.0
2018-Apr-11 05:29N 42°24' W 071°01'0 0.0
2018-Apr-11 04:59N 42°24' W 071°01'0 0.0
2018-Apr-11 04:29N 42°24' W 071°01'0 0.0
2018-Apr-11 03:59N 42°24' W 071°01'0 0.0
2018-Apr-11 03:29N 42°24' W 071°01'0 0.0
2018-Apr-11 02:59N 42°24' W 071°01'0 0.0
2018-Apr-11 02:29N 42°24' W 071°01'0 0.0
2018-Apr-11 01:59N 42°24' W 071°01'0 0.0
2018-Apr-11 01:29N 42°24' W 071°01'0 0.0
2018-Apr-11 00:59N 42°24' W 071°01'0 0.0
2018-Apr-11 00:29N 42°24' W 071°01'0 0.0
2018-Apr-10 23:59N 42°24' W 071°01'0 0.0
2018-Apr-10 23:29N 42°24' W 071°01'0 0.0
2018-Apr-10 22:59N 42°24' W 071°01'0 0.0
2018-Apr-10 22:29N 42°24' W 071°01'0 0.0
2018-Apr-10 21:59N 42°24' W 071°01'0 0.0
2018-Apr-10 21:29N 42°24' W 071°01'0 0.0
2018-Apr-10 20:59N 42°24' W 071°01'0 0.0
2018-Apr-10 20:29N 42°24' W 071°01'0 0.0
2018-Apr-10 19:59N 42°24' W 071°01'0 0.0
2018-Apr-10 19:29N 42°24' W 071°01'0 0.0
2018-Apr-10 18:59N 42°24' W 071°01'0 0.0
2018-Apr-10 18:29N 42°24' W 071°01'0 0.0
2018-Apr-10 17:59N 42°24' W 071°01'0 0.0
2018-Apr-10 17:29N 42°24' W 071°01'0 0.0
2018-Apr-10 16:59N 42°24' W 071°01'0 0.0
2018-Apr-10 16:29N 42°24' W 071°01'0 0.0
2018-Apr-10 15:59N 42°24' W 071°01'0 0.0
2018-Apr-10 15:29N 42°24' W 071°01'0 0.0
2018-Apr-10 14:59N 42°24' W 071°01'0 0.0
2018-Apr-10 14:29N 42°24' W 071°01'0 0.0
2018-Apr-10 13:59N 42°24' W 071°01'0 0.0
2018-Apr-10 13:29N 42°24' W 071°01'0 0.0
2018-Apr-10 12:59N 42°24' W 071°01'0 0.0
2018-Apr-10 12:29N 42°24' W 071°01'0 0.0
2018-Apr-10 11:59N 42°24' W 071°01'1 1.1
2018-Apr-10 11:30N 42°23' W 071°01'1 2.6
2018-Apr-10 11:00N 42°22' W 071°03'4 7.6
2018-Apr-10 10:30N 42°20' W 070°59'611.9
2018-Apr-10 10:00N 42°23' W 070°52'2 3.8
2018-Apr-10 09:28N 42°25' W 070°50'0 0.1
2018-Apr-10 08:59N 42°25' W 070°50'0 0.5
2018-Apr-10 08:30N 42°25' W 070°50'2 3.9
2018-Apr-10 08:00N 42°26' W 070°47'4 7.9
2018-Apr-10 07:30N 42°28' W 070°43'4 8.8
2018-Apr-10 07:00N 42°31' W 070°38'612.9
2018-Apr-10 06:30N 42°34' W 070°31'612.9
2018-Apr-10 06:00N 42°38' W 070°24'612.8
2018-Apr-10 05:30N 42°41' W 070°16'612.9
2018-Apr-10 05:00N 42°45' W 070°09'  

Dump ship's entire track history